Cascade, MT (59421)

3:16 AM MST on February 14, 2016 (GMT -0700)
Cascade Public Schools MT | | Change Station
CLOSE
Current Station
Personal Weather Station
Location: Cascade, MT
Elevation: 3435 ft
Nearby Weather Stations

Elev 3435 ft 47.27 °N, 111.71 °W | Updated 4 seconds ago

Overcast
Overcast
38.0 °F
Feels Like 30 °F
N
14.0
Wind Variable Wind from West
Gusts 15.0 mph

Today
High -- | Low -- °F
--% Chance of Precip.
Yesterday
High -- | Low -- °F
Precip. -- in
Pressure 29.87 in
Visibility 10.0 miles
Clouds Mostly Cloudy 10000 ft
Overcast 12000 ft
Windchill 30 °F
Dew Point 24 °F
Humidity 57%
Rainfall 0.16 in
Snow Depth Not available.
7:33 AM 5:48 PM
Waxing Crescent, 40% visible
METAR KGTF 140953Z 22022KT 10SM BKN100 OVC120 02/M05 A2981 RMK AO2 PK WND 21027/0936 SLP113 T00221050
Pressure 29.87 in
Visibility 10.0 miles
Clouds Mostly Cloudy 10000 ft
Overcast 12000 ft
Windchill 30 °F
Dew Point 24 °F
Humidity 57%
Rainfall 0.16 in
Snow Depth Not available.
7:33 AM 5:48 PM
Waxing Crescent, 40% visible
METAR KGTF 140953Z 22022KT 10SM BKN100 OVC120 02/M05 A2981 RMK AO2 PK WND 21027/0936 SLP113 T00221050

10-Day Weather Forecast

Almanac

Astronomy

Feb. 14, 2016 Rise Set
Actual Time
Civil Twilight
Nautical Twilight
Astronomical Twilight
Moon
Length of Visible Light
Length of Day
Tomorrow will be .
, % of the Moon is Illuminated

Today's Extremes

State Highs State Lows

Community

WunderPhotos

Upload Photos

1,892,765 photos uploaded!

WunderBlog® & News

Nearby

Air Quality

  Air Quality AQ Index Pollutant
Not available.

Snow Depth

Station Depth Elevation

Earthquake Activity

City Distance Mag. Time & Date
Minimum magnitude displayed is 2.5.

Coastal Water Temperatures

Place Temperature

Stations

Nearby Weather Stations

Station Location Temp. Windchill Dew Point Humidity Wind Precip. Elev Updated Type
                   

Watches & Warnings

There are currently no watches in effect.